Pacific Dawn — 2AGH7 — position and weather

sailwx.info

Track history (hours):
 
Tides and Currents Weather Stations Pressure Air Temp Water Temp Dewpoint Dewpoint Depression Visibility Wind Speed Wind Dir Waves Ship Positions

Pacific Dawn

Last reported at 2014-Oct-18 13:34 UTC. Time now 2014-Oct-22 15:30 UTC.
Position S 26°36' E 153°28'.

Length 245 m; draft 8.4 m.

Type: Passenger vessel. MMSI: 235059368.

Date/timePositionNaut miles runAvg speedWind from/ knotsBaromVisibWave heightAir tempDewpointWater temp
2014-Oct-18 13:34S 26°36' E 153°28'1716.8
2014-Oct-18 12:33S 26°42' E 153°11'1514.5
2014-Oct-18 11:33S 26°56' E 153°13'1716.8
2014-Oct-18 10:33S 27°12' E 153°21'1514.5
2014-Oct-18 09:33S 27°23' E 153°10'6 6.2
2014-Oct-18 08:34S 27°27' E 153°04'0 0.3
2014-Oct-18 07:29S 27°26' E 153°04'0 0.0
2014-Oct-18 06:32S 27°26' E 153°04'0 0.0
2014-Oct-18 05:17S 27°26' E 153°04'0 0.0
2014-Oct-18 04:26S 27°26' E 153°04'0 0.0
2014-Oct-18 03:26S 27°26' E 153°04'0 0.0
2014-Oct-18 02:29S 27°26' E 153°04'0 0.0
2014-Oct-18 01:32S 27°26' E 153°04'0 0.0
2014-Oct-18 00:20S 27°26' E 153°04'0 0.0
2014-Oct-17 23:32S 27°26' E 153°04'0 0.0
2014-Oct-17 22:29S 27°26' E 153°04'0 0.0
2014-Oct-17 20:29S 27°26' E 153°04'0 0.0
2014-Oct-17 19:21S 27°26' E 153°04'4 5.0
2014-Oct-17 18:33S 27°25' E 153°08'1110.7
2014-Oct-17 17:34S 27°17' E 153°15'1313.4
2014-Oct-17 16:33S 27°03' E 153°18'1615.6
2014-Oct-17 15:33S 26°50' E 153°09'1111.1
2014-Oct-17 14:33S 26°41' E 153°17'1716.6
2014-Oct-17 13:33S 26°35' E 153°34'  
2014-Oct-11 11:13S 26°27' E 154°01'1217.7
2014-Oct-11 10:33S 26°30' E 153°49'1817.9
2014-Oct-11 09:33S 26°37' E 153°31'1717.0
2014-Oct-11 08:33S 26°42' E 153°12'1312.9
2014-Oct-11 07:34S 26°55' E 153°11'1717.1
2014-Oct-11 06:34S 27°10' E 153°21'1515.4
2014-Oct-11 05:33S 27°22' E 153°10'7 7.1
2014-Oct-11 04:33S 27°27' E 153°04'0 0.3
2014-Oct-11 03:32S 27°26' E 153°04'0 0.0
2014-Oct-11 02:32S 27°26' E 153°04'0 0.0
2014-Oct-11 01:32S 27°26' E 153°04'0 0.0
2014-Oct-11 00:32S 27°26' E 153°04'0 0.0
2014-Oct-10 23:32S 27°26' E 153°04'0 0.0
2014-Oct-10 22:32S 27°26' E 153°04'0 0.0
2014-Oct-10 21:32S 27°26' E 153°04'0 0.0
2014-Oct-10 20:32S 27°26' E 153°04'0 0.0
2014-Oct-10 19:33S 27°26' E 153°04'4 4.5
2014-Oct-10 18:33S 27°25' E 153°09'1110.7
2014-Oct-10 17:33S 27°16' E 153°16'1313.1
2014-Oct-10 16:34S 27°03' E 153°18'1514.8
2014-Oct-10 15:33S 26°51' E 153°09'1313.5
2014-Oct-10 14:34S 26°39' E 153°15'1514.6
2014-Oct-10 13:32S 26°24' E 153°20'1514.7
2014-Oct-10 12:33S 26°10' E 153°24'1714.9
2014-Oct-10 11:26S 25°54' E 153°26'1615.8
2014-Oct-10 10:24S 25°37' E 153°29'  
Track history (hours):
 
Tides and Currents Weather Stations Pressure Air Temp Water Temp Dewpoint Dewpoint Depression Visibility Wind Speed Wind Dir Waves Ship Positions

Pacific Dawn

Last reported at 2014-Oct-18 13:34 UTC. Time now 2014-Oct-22 15:30 UTC.
Position S 26°36' E 153°28'.

Length 245 m; draft 8.4 m.

Type: Passenger vessel. MMSI: 235059368.

Date/timePositionNaut miles runAvg speedWind from/ knotsBaromVisibWave heightAir tempDewpointWater temp
2014-Oct-18 13:34S 26°36' E 153°28'1716.8
2014-Oct-18 12:33S 26°42' E 153°11'1514.5
2014-Oct-18 11:33S 26°56' E 153°13'1716.8
2014-Oct-18 10:33S 27°12' E 153°21'1514.5
2014-Oct-18 09:33S 27°23' E 153°10'6 6.2
2014-Oct-18 08:34S 27°27' E 153°04'0 0.3
2014-Oct-18 07:29S 27°26' E 153°04'0 0.0
2014-Oct-18 06:32S 27°26' E 153°04'0 0.0
2014-Oct-18 05:17S 27°26' E 153°04'0 0.0
2014-Oct-18 04:26S 27°26' E 153°04'0 0.0
2014-Oct-18 03:26S 27°26' E 153°04'0 0.0
2014-Oct-18 02:29S 27°26' E 153°04'0 0.0
2014-Oct-18 01:32S 27°26' E 153°04'0 0.0
2014-Oct-18 00:20S 27°26' E 153°04'0 0.0
2014-Oct-17 23:32S 27°26' E 153°04'0 0.0
2014-Oct-17 22:29S 27°26' E 153°04'0 0.0
2014-Oct-17 20:29S 27°26' E 153°04'0 0.0
2014-Oct-17 19:21S 27°26' E 153°04'4 5.0
2014-Oct-17 18:33S 27°25' E 153°08'1110.7
2014-Oct-17 17:34S 27°17' E 153°15'1313.4
2014-Oct-17 16:33S 27°03' E 153°18'1615.6
2014-Oct-17 15:33S 26°50' E 153°09'1111.1
2014-Oct-17 14:33S 26°41' E 153°17'1716.6
2014-Oct-17 13:33S 26°35' E 153°34'  
2014-Oct-11 11:13S 26°27' E 154°01'1217.7
2014-Oct-11 10:33S 26°30' E 153°49'1817.9
2014-Oct-11 09:33S 26°37' E 153°31'1717.0
2014-Oct-11 08:33S 26°42' E 153°12'1312.9
2014-Oct-11 07:34S 26°55' E 153°11'1717.1
2014-Oct-11 06:34S 27°10' E 153°21'1515.4
2014-Oct-11 05:33S 27°22' E 153°10'7 7.1
2014-Oct-11 04:33S 27°27' E 153°04'0 0.3
2014-Oct-11 03:32S 27°26' E 153°04'0 0.0
2014-Oct-11 02:32S 27°26' E 153°04'0 0.0
2014-Oct-11 01:32S 27°26' E 153°04'0 0.0
2014-Oct-11 00:32S 27°26' E 153°04'0 0.0
2014-Oct-10 23:32S 27°26' E 153°04'0 0.0
2014-Oct-10 22:32S 27°26' E 153°04'0 0.0
2014-Oct-10 21:32S 27°26' E 153°04'0 0.0
2014-Oct-10 20:32S 27°26' E 153°04'0 0.0
2014-Oct-10 19:33S 27°26' E 153°04'4 4.5
2014-Oct-10 18:33S 27°25' E 153°09'1110.7
2014-Oct-10 17:33S 27°16' E 153°16'1313.1
2014-Oct-10 16:34S 27°03' E 153°18'1514.8
2014-Oct-10 15:33S 26°51' E 153°09'1313.5
2014-Oct-10 14:34S 26°39' E 153°15'1514.6
2014-Oct-10 13:32S 26°24' E 153°20'1514.7
2014-Oct-10 12:33S 26°10' E 153°24'1714.9
2014-Oct-10 11:26S 25°54' E 153°26'1615.8
2014-Oct-10 10:24S 25°37' E 153°29'  

Dump ship's entire track history